Time;durP1;ratioP1;P1;durP2;ratioP2;P2;SDS_P1;SDS_P2;PMS_P1;PMS_P2;Temp;Humidity;BMP_temperature;BMP_pressure;BME280_temperature;BME280_humidity;BME280_pressure;Samples;Min_cycle;Max_cycle;Signal;HPM_P1;HPM_P2
2023/12/29 00:01:48;;;;;;;12.60;8.70;;;;;;;5.87;78.33;99737.88;103467;1251;110042;-72
2023/12/29 00:04:15;;;;;;;14.50;9.20;;;;;;;5.88;78.34;99739.05;103441;1251;107090;-71
2023/12/29 00:06:42;;;;;;;13.40;8.80;;;;;;;5.89;78.49;99740.08;103392;1254;137268;-71
2023/12/29 00:09:12;;;;;;;15.10;8.80;;;;;;;5.86;78.30;99738.40;103431;1251;107878;-72
2023/12/29 00:11:39;;;;;;;14.40;8.90;;;;;;;5.82;78.53;99734.70;103300;1256;137668;-71
2023/12/29 00:14:06;;;;;;;13.60;8.20;;;;;;;5.80;78.31;99734.24;103481;1251;110743;-70
2023/12/29 00:16:33;;;;;;;13.40;7.80;;;;;;;5.79;78.60;99732.72;103345;1256;138010;-70
2023/12/29 00:19:00;;;;;;;15.90;7.60;;;;;;;5.82;78.63;99735.75;103469;1252;96453;-70
2023/12/29 00:21:27;;;;;;;15.60;8.30;;;;;;;5.84;78.81;99733.80;103417;1251;106366;-70
2023/12/29 00:23:54;;;;;;;13.30;8.00;;;;;;;5.83;78.72;99730.20;103346;1253;137618;-69
2023/12/29 00:26:21;;;;;;;14.20;7.80;;;;;;;5.85;78.82;99728.27;103455;1251;110169;-70
2023/12/29 00:28:53;;;;;;;11.90;7.90;;;;;;;5.88;78.83;99731.29;103322;1251;137573;-70
2023/12/29 00:31:19;;;;;;;14.70;8.30;;;;;;;5.85;78.76;99729.81;103440;1251;96472;-71
2023/12/29 00:33:46;;;;;;;15.10;8.20;;;;;;;5.84;78.65;99729.13;103322;1257;108803;-71
2023/12/29 00:36:18;;;;;;;12.20;7.80;;;;;;;5.83;78.79;99725.54;103407;1251;137172;-71
2023/12/29 00:38:45;;;;;;;13.00;8.00;;;;;;;5.83;78.70;99721.23;103499;1251;111551;-70
2023/12/29 00:41:12;;;;;;;13.60;8.40;;;;;;;5.81;78.77;99722.48;103267;1253;137914;-71
2023/12/29 00:43:39;;;;;;;12.80;8.00;;;;;;;5.79;78.78;99725.12;103501;1251;95093;-70
2023/12/29 00:46:06;;;;;;;13.30;7.70;;;;;;;5.78;78.78;99721.00;103494;1252;107439;-71
2023/12/29 00:48:33;;;;;;;13.10;7.80;;;;;;;5.76;78.85;99723.81;103407;1254;138380;-71
2023/12/29 00:51:01;;;;;;;13.90;7.70;;;;;;;5.76;78.89;99720.17;103521;1251;109622;-71
2023/12/29 00:53:28;;;;;;;13.40;7.40;;;;;;;5.77;78.88;99723.78;103330;1251;137820;-71
2023/12/29 00:55:55;;;;;;;11.40;7.00;;;;;;;5.76;78.76;99722.08;103383;1251;97180;-71
2023/12/29 00:58:22;;;;;;;11.20;6.60;;;;;;;5.76;78.59;99719.14;103516;1252;107862;-70
2023/12/29 01:00:50;;;;;;;11.00;6.80;;;;;;;5.75;78.60;99725.39;103454;1254;96454;-71
2023/12/29 01:03:17;;;;;;;11.00;6.70;;;;;;;5.75;78.54;99721.56;103504;1251;110468;-71
2023/12/29 01:05:46;;;;;;;11.70;7.40;;;;;;;5.78;78.66;99722.20;103292;1251;138415;-71
2023/12/29 01:08:13;;;;;;;13.00;7.50;;;;;;;5.78;78.34;99716.52;103490;1251;96451;-71
2023/12/29 01:10:40;;;;;;;10.50;7.10;;;;;;;5.75;78.23;99720.19;103344;1251;138849;-71
2023/12/29 01:13:07;;;;;;;11.70;7.40;;;;;;;5.76;78.25;99722.59;104359;1251;95070;-72
2023/12/29 01:15:34;;;;;;;9.80;6.90;;;;;;;5.79;78.14;99724.44;103545;1251;111087;-72
2023/12/29 01:18:01;;;;;;;11.30;7.50;;;;;;;5.79;77.92;99711.50;103295;1253;137929;-72
2023/12/29 01:20:29;;;;;;;11.50;7.40;;;;;;;5.79;77.91;99715.80;103495;1251;97023;-72
2023/12/29 01:22:56;;;;;;;13.20;7.60;;;;;;;5.81;77.88;99709.04;103280;1251;138100;-71
2023/12/29 01:25:24;;;;;;;11.50;7.30;;;;;;;5.81;77.82;99705.73;103453;1251;96460;-71
2023/12/29 01:27:51;;;;;;;12.70;7.70;;;;;;;5.76;77.20;99703.11;103488;1251;110131;-71
2023/12/29 01:30:18;;;;;;;13.10;7.70;;;;;;;5.70;77.59;99698.55;103271;1251;137492;-73
2023/12/29 01:32:45;;;;;;;14.10;7.90;;;;;;;5.68;77.68;99696.52;102730;1251;1002785;-72
2023/12/29 01:35:12;;;;;;;13.00;7.80;;;;;;;5.67;77.58;99696.71;103356;1251;138080;-72
2023/12/29 01:37:40;;;;;;;10.90;7.20;;;;;;;5.64;77.34;99691.62;104791;1251;94406;-70
2023/12/29 01:40:08;;;;;;;10.20;7.20;;;;;;;5.60;77.51;99690.52;103834;1251;109758;-71
2023/12/29 01:42:35;;;;;;;11.90;7.80;;;;;;;5.58;77.75;99685.72;103592;1253;137689;-70
2023/12/29 01:45:02;;;;;;;12.00;8.10;;;;;;;5.56;77.61;99682.11;103444;1253;96816;-73
2023/12/29 01:47:30;;;;;;;12.70;7.50;;;;;;;5.55;77.60;99679.55;103383;1251;138721;-70
2023/12/29 01:49:59;;;;;;;11.90;7.60;;;;;;;5.53;77.53;99678.38;103447;1251;96365;-70
2023/12/29 01:52:26;;;;;;;12.70;8.10;;;;;;;5.49;77.54;99669.52;103287;1251;138783;-71
2023/12/29 01:54:54;;;;;;;11.70;7.60;;;;;;;5.47;77.84;99668.70;103384;1251;107665;-70
2023/12/29 01:57:22;;;;;;;12.00;7.60;;;;;;;5.47;77.82;99658.69;103402;1251;96952;-71
2023/12/29 01:59:49;;;;;;;12.60;7.10;;;;;;;5.47;77.76;99661.80;103241;1255;138317;-72
2023/12/29 02:02:16;;;;;;;13.40;8.20;;;;;;;5.45;77.71;99652.70;103383;1253;97064;-71
2023/12/29 02:04:45;;;;;;;11.10;6.90;;;;;;;5.44;78.08;99642.73;103329;1253;138191;-71
2023/12/29 02:07:12;;;;;;;12.10;7.40;;;;;;;5.42;77.90;99635.52;103501;1253;107253;-71
2023/12/29 02:09:40;;;;;;;13.00;7.30;;;;;;;5.43;78.17;99628.95;103428;1257;96543;-71
2023/12/29 02:12:08;;;;;;;12.10;6.60;;;;;;;5.43;78.20;99630.85;103243;1253;137703;-71
2023/12/29 02:14:34;;;;;;;11.70;6.70;;;;;;;5.45;78.22;99631.49;103684;1253;96453;-72
2023/12/29 02:17:09;;;;;;;10.80;7.00;;;;;;;5.48;78.17;99632.98;103273;1257;138557;-70
2023/12/29 02:19:49;;;;;;;11.30;7.10;;;;;;;5.53;78.17;99631.48;103353;1253;107956;-70
2023/12/29 02:22:16;;;;;;;12.60;7.20;;;;;;;5.56;78.11;99629.70;103415;1253;96469;-71
2023/12/29 02:24:48;;;;;;;11.80;7.10;;;;;;;5.57;78.12;99623.30;103160;1257;137973;-71
2023/12/29 02:27:24;;;;;;;11.00;7.30;;;;;;;5.56;77.99;99622.27;102662;1253;1002849;-71
2023/12/29 02:30:03;;;;;;;11.30;7.70;;;;;;;5.57;78.20;99622.27;103201;1253;139070;-71
2023/12/29 02:32:34;;;;;;;12.70;7.60;;;;;;;5.56;78.11;99614.18;103312;1254;107602;-71
2023/12/29 02:35:02;;;;;;;12.40;7.00;;;;;;;5.51;78.06;99621.88;103593;1253;139206;-72
2023/12/29 02:37:30;;;;;;;10.00;6.40;;;;;;;5.47;78.25;99614.02;104799;1253;107458;-71
2023/12/29 02:39:59;;;;;;;10.30;6.40;;;;;;;5.44;78.29;99616.67;104810;1253;94297;-71
2023/12/29 02:42:27;;;;;;;13.30;7.30;;;;;;;5.42;78.45;99612.74;104706;1252;137848;-71
2023/12/29 02:44:54;;;;;;;12.20;7.50;;;;;;;5.43;78.38;99607.05;104768;1252;107676;-71
2023/12/29 02:47:21;;;;;;;11.10;7.10;;;;;;;5.42;78.49;99607.95;104457;1252;137350;-70
2023/12/29 02:49:49;;;;;;;11.40;7.10;;;;;;;5.40;78.54;99606.60;103341;1253;105807;-71
2023/12/29 02:52:16;;;;;;;12.00;7.90;;;;;;;5.38;78.49;99604.91;103349;1253;96432;-72
2023/12/29 02:54:42;;;;;;;11.30;7.40;;;;;;;5.35;78.51;99609.98;103308;1251;136969;-72
2023/12/29 02:57:10;;;;;;;13.30;8.40;;;;;;;5.29;78.68;99607.67;103433;1251;107171;-71
2023/12/29 02:59:37;;;;;;;13.00;8.10;;;;;;;5.24;78.74;99603.67;103375;1251;138161;-71
2023/12/29 03:02:06;;;;;;;12.30;8.10;;;;;;;5.19;78.83;99608.92;103426;1253;108360;-71
2023/12/29 03:04:33;;;;;;;12.50;8.10;;;;;;;5.13;79.02;99604.56;103622;1251;138879;-71
2023/12/29 03:07:00;;;;;;;12.70;8.00;;;;;;;5.09;79.07;99608.11;103907;1253;109192;-71
2023/12/29 03:09:26;;;;;;;12.00;7.60;;;;;;;5.04;79.49;99607.00;103297;1253;107853;-70
2023/12/29 03:11:53;;;;;;;13.00;8.30;;;;;;;4.99;79.72;99604.33;103308;1255;137875;-70
2023/12/29 03:14:20;;;;;;;12.10;7.90;;;;;;;5.01;79.92;99600.67;103373;1253;107562;-70
2023/12/29 03:16:47;;;;;;;12.20;7.10;;;;;;;5.03;79.70;99601.50;103339;1253;138698;-70
2023/12/29 03:19:13;;;;;;;11.40;7.70;;;;;;;5.06;79.93;99596.11;103696;1253;109786;-72
2023/12/29 03:21:40;;;;;;;11.90;8.00;;;;;;;5.06;80.04;99596.27;103317;1257;107701;-71
2023/12/29 03:24:10;;;;;;;13.10;8.80;;;;;;;5.08;80.07;99594.35;103276;1253;137959;-72
2023/12/29 03:26:36;;;;;;;14.90;8.50;;;;;;;5.06;79.86;99592.31;103954;1256;106922;-72
2023/12/29 03:29:03;;;;;;;14.60;7.90;;;;;;;5.03;80.16;99594.10;101722;1259;1003155;-72
2023/12/29 03:31:30;;;;;;;13.60;8.50;;;;;;;4.99;80.17;99587.80;103400;1253;110216;-72
2023/12/29 03:33:57;;;;;;;11.30;8.10;;;;;;;4.94;80.35;99586.52;103337;1253;108299;-71
2023/12/29 03:36:24;;;;;;;13.80;8.40;;;;;;;4.91;80.53;99583.33;103364;1253;137868;-71
2023/12/29 03:38:51;;;;;;;14.20;7.90;;;;;;;4.86;80.58;99582.36;103388;1253;107977;-71
2023/12/29 03:41:18;;;;;;;12.30;7.50;;;;;;;4.82;80.70;99582.77;103354;1254;138066;-70
2023/12/29 03:43:46;;;;;;;10.60;7.40;;;;;;;4.80;80.84;99583.34;103442;1255;109632;-71
2023/12/29 03:46:22;;;;;;;12.90;8.20;;;;;;;4.77;80.74;99582.54;103423;1253;109232;-71
2023/12/29 03:48:50;;;;;;;15.30;8.70;;;;;;;4.75;80.96;99578.79;104632;1253;95500;-72
2023/12/29 03:51:19;;;;;;;13.60;8.80;;;;;;;4.74;80.98;99579.67;103316;1255;107817;-72
2023/12/29 03:53:46;;;;;;;12.90;8.70;;;;;;;4.69;80.93;99577.89;103209;1252;138586;-70
2023/12/29 03:56:16;;;;;;;16.20;9.70;;;;;;;4.63;81.20;99573.68;103490;1251;110548;-72
2023/12/29 03:58:43;;;;;;;14.90;9.90;;;;;;;4.55;81.18;99580.90;104675;1251;137420;-72
2023/12/29 04:01:13;;;;;;;16.10;9.40;;;;;;;4.49;81.44;99575.16;103609;1251;96514;-70
2023/12/29 04:03:40;;;;;;;13.90;9.30;;;;;;;4.45;81.52;99571.43;103457;1251;108614;-70
2023/12/29 04:06:09;;;;;;;14.30;9.60;;;;;;;4.42;81.73;99567.20;103311;1253;139209;-70
2023/12/29 04:08:36;;;;;;;14.70;8.90;;;;;;;4.38;81.81;99576.89;103523;1251;110502;-70
2023/12/29 04:11:04;;;;;;;14.20;9.40;;;;;;;4.38;82.09;99566.07;103321;1251;138406;-71
2023/12/29 04:13:31;;;;;;;16.50;9.90;;;;;;;4.35;82.33;99567.33;104842;1251;94689;-71
2023/12/29 04:15:58;;;;;;;14.40;9.30;;;;;;;4.32;82.32;99569.79;104770;1251;107094;-71
2023/12/29 04:18:26;;;;;;;13.50;9.30;;;;;;;4.29;82.57;99568.61;104676;1251;137931;-71
2023/12/29 04:20:53;;;;;;;14.30;9.10;;;;;;;4.28;82.56;99571.22;104811;1251;109458;-71
2023/12/29 04:23:20;;;;;;;15.60;10.30;;;;;;;4.27;82.70;99564.00;104692;1251;137746;-71
2023/12/29 04:25:46;;;;;;;15.30;9.80;;;;;;;4.32;83.01;99558.27;104813;1251;94413;-71
2023/12/29 04:28:13;;;;;;;16.10;10.30;;;;;;;4.34;82.93;99553.06;104786;1253;107383;-71
2023/12/29 04:30:40;;;;;;;15.70;10.60;;;;;;;4.30;83.21;99544.70;104749;1251;137910;-70
2023/12/29 04:33:07;;;;;;;21.50;10.50;;;;;;;4.27;82.96;99541.11;104833;1256;109159;-72
2023/12/29 04:35:34;;;;;;;17.10;10.50;;;;;;;4.24;83.34;99538.24;104680;1252;138102;-71
2023/12/29 04:38:01;;;;;;;15.00;9.50;;;;;;;4.21;83.31;99535.38;104777;1253;94519;-71
2023/12/29 04:40:29;;;;;;;14.60;9.50;;;;;;;4.21;83.34;99536.41;104685;1251;139019;-71
2023/12/29 04:42:56;;;;;;;18.10;10.40;;;;;;;4.22;83.56;99538.63;104818;1251;94752;-71
2023/12/29 04:45:24;;;;;;;14.70;10.00;;;;;;;4.24;83.95;99541.33;104821;1253;109851;-71
2023/12/29 04:47:51;;;;;;;13.10;9.70;;;;;;;4.26;83.88;99542.16;104697;1251;138099;-72
2023/12/29 04:50:18;;;;;;;15.30;9.70;;;;;;;4.28;84.01;99544.38;104807;1252;95217;-71
2023/12/29 04:52:45;;;;;;;16.10;10.40;;;;;;;4.29;83.93;99542.63;104767;1251;138225;-71
2023/12/29 04:55:12;;;;;;;14.90;10.00;;;;;;;4.33;83.88;99541.04;104822;1252;94556;-71
2023/12/29 04:57:39;;;;;;;16.10;10.30;;;;;;;4.36;84.04;99541.83;104880;1253;109329;-71
2023/12/29 05:00:08;;;;;;;14.70;9.80;;;;;;;4.41;83.91;99545.00;104680;1254;138620;-71
2023/12/29 05:02:35;;;;;;;14.00;10.00;;;;;;;4.45;83.93;99538.89;104815;1252;94677;-70
2023/12/29 05:05:02;;;;;;;15.80;10.20;;;;;;;4.48;83.88;99538.66;103783;1253;137500;-71
2023/12/29 05:07:29;;;;;;;15.00;10.50;;;;;;;4.52;84.04;99536.55;103499;1253;96430;-72
2023/12/29 05:09:56;;;;;;;16.80;10.00;;;;;;;4.55;83.87;99532.52;103407;1253;109446;-71
2023/12/29 05:12:23;;;;;;;16.40;10.10;;;;;;;4.57;83.95;99537.31;103309;1256;138186;-71
2023/12/29 05:14:49;;;;;;;13.60;10.20;;;;;;;4.60;83.88;99535.52;103452;1253;96440;-71
2023/12/29 05:17:16;;;;;;;15.00;9.50;;;;;;;4.63;83.99;99536.48;103277;1252;139697;-71
2023/12/29 05:19:43;;;;;;;12.90;8.70;;;;;;;4.69;84.14;99532.94;103440;1253;96336;-71
2023/12/29 05:22:11;;;;;;;15.80;9.20;;;;;;;4.75;84.18;99535.92;103466;1253;110050;-72
2023/12/29 05:24:38;;;;;;;14.60;9.40;;;;;;;4.87;84.26;99527.23;104665;1252;137610;-71
2023/12/29 05:27:06;;;;;;;13.90;8.90;;;;;;;4.96;84.24;99528.08;104809;1251;94658;-71
2023/12/29 05:29:33;;;;;;;13.40;9.20;;;;;;;5.04;84.08;99523.09;103454;1254;137759;-72
2023/12/29 05:32:02;;;;;;;14.80;9.20;;;;;;;5.11;83.87;99526.73;103340;1256;96443;-72
2023/12/29 05:34:29;;;;;;;13.10;9.20;;;;;;;5.18;83.75;99526.73;104729;1251;137620;-71
2023/12/29 05:36:55;;;;;;;13.80;8.70;;;;;;;5.24;83.51;99527.83;104786;1253;107370;-71
2023/12/29 05:39:22;;;;;;;11.80;7.90;;;;;;;5.29;83.65;99524.27;103704;1256;96462;-70
2023/12/29 05:41:49;;;;;;;10.50;7.50;;;;;;;5.35;83.43;99529.98;103369;1256;137687;-71
2023/12/29 05:44:16;;;;;;;10.70;7.80;;;;;;;5.41;83.36;99524.33;103445;1253;96436;-71
2023/12/29 05:46:46;;;;;;;10.10;7.50;;;;;;;5.50;83.69;99535.69;104715;1251;137919;-72
2023/12/29 05:49:13;;;;;;;10.50;7.30;;;;;;;5.59;83.14;99528.77;104767;1253;107392;-70
2023/12/29 05:51:40;;;;;;;11.30;7.60;;;;;;;5.68;83.26;99535.09;104835;1252;94650;-70
2023/12/29 05:54:07;;;;;;;13.10;7.80;;;;;;;5.76;82.91;99532.14;104284;1254;138604;-71
2023/12/29 05:56:33;;;;;;;12.00;8.00;;;;;;;5.83;82.83;99527.84;103476;1254;96472;-72
2023/12/29 05:59:00;;;;;;;11.80;7.90;;;;;;;5.91;82.64;99528.88;103398;1251;137515;-71
2023/12/29 06:01:27;;;;;;;9.80;7.20;;;;;;;5.95;82.40;99524.81;103426;1252;107336;-70
2023/12/29 06:03:54;;;;;;;11.70;7.10;;;;;;;5.99;82.34;99519.17;103449;1251;96462;-70
2023/12/29 06:06:21;;;;;;;10.70;7.10;;;;;;;6.04;82.18;99513.88;103265;1253;138881;-71
2023/12/29 06:08:48;;;;;;;9.00;6.60;;;;;;;6.09;81.99;99515.14;103431;1251;96402;-71
2023/12/29 06:11:18;;;;;;;10.10;6.60;;;;;;;6.14;81.98;99515.20;103314;1251;138400;-71
2023/12/29 06:13:44;;;;;;;9.10;6.90;;;;;;;6.19;81.80;99501.07;103432;1251;107844;-72
2023/12/29 06:16:17;;;;;;;11.70;6.70;;;;;;;6.23;81.56;99494.08;103430;1256;96520;-70
2023/12/29 06:18:44;;;;;;;10.10;6.80;;;;;;;6.30;81.40;99497.86;103298;1252;137207;-71
2023/12/29 06:21:11;;;;;;;9.60;7.20;;;;;;;6.31;81.24;99493.50;103466;1251;96459;-71
2023/12/29 06:23:38;;;;;;;13.50;7.90;;;;;;;6.32;81.03;99492.61;103982;1251;137532;-72
2023/12/29 06:26:05;;;;;;;11.00;7.20;;;;;;;6.27;80.91;99490.33;104757;1253;107275;-71
2023/12/29 06:28:32;;;;;;;10.40;6.50;;;;;;;6.29;80.72;99493.03;104722;1253;138133;-71
2023/12/29 06:30:59;;;;;;;9.70;6.70;;;;;;;6.30;80.75;99490.42;104804;1251;108222;-71
2023/12/29 06:33:26;;;;;;;8.30;5.90;;;;;;;6.31;80.52;99491.45;104814;1252;94371;-71
2023/12/29 06:35:52;;;;;;;11.10;6.40;;;;;;;6.33;80.32;99494.83;104692;1253;137502;-72
2023/12/29 06:38:19;;;;;;;10.90;6.70;;;;;;;6.36;80.20;99494.76;104779;1252;107591;-71
2023/12/29 06:40:46;;;;;;;11.00;6.60;;;;;;;6.37;79.91;99490.92;104720;1253;137827;-71
2023/12/29 06:43:13;;;;;;;9.30;6.50;;;;;;;6.39;79.74;99488.27;104813;1253;107637;-71
2023/12/29 06:45:39;;;;;;;9.80;6.50;;;;;;;6.36;79.60;99494.23;104813;1251;94414;-71
2023/12/29 06:48:07;;;;;;;9.30;6.30;;;;;;;6.33;79.49;99495.02;104751;1251;136937;-71
2023/12/29 06:50:35;;;;;;;11.40;6.60;;;;;;;6.31;79.31;99495.92;104774;1253;107517;-71
2023/12/29 06:53:03;;;;;;;11.00;6.70;;;;;;;6.30;79.28;99493.87;104727;1253;138983;-72
2023/12/29 06:55:30;;;;;;;8.40;6.40;;;;;;;6.30;79.45;99493.02;104761;1253;107956;-71
2023/12/29 06:57:57;;;;;;;11.20;6.60;;;;;;;6.34;79.30;99492.04;104839;1251;94628;-71
2023/12/29 07:00:24;;;;;;;12.00;7.00;;;;;;;6.37;79.16;99493.16;104690;1251;137891;-71
2023/12/29 07:02:51;;;;;;;12.30;7.20;;;;;;;6.37;78.92;99501.80;104794;1251;108050;-71
2023/12/29 07:05:18;;;;;;;11.10;7.50;;;;;;;6.38;78.83;99498.65;104746;1251;138435;-71
2023/12/29 07:07:45;;;;;;;11.00;7.30;;;;;;;6.37;78.81;99487.98;104798;1251;108280;-72
2023/12/29 07:10:14;;;;;;;11.60;7.60;;;;;;;6.32;78.75;99487.61;104797;1251;94952;-71
2023/12/29 07:12:41;;;;;;;12.60;7.40;;;;;;;6.29;78.77;99485.62;104715;1256;137587;-71
2023/12/29 07:15:09;;;;;;;11.20;7.00;;;;;;;6.27;78.56;99479.63;104793;1252;107423;-72
2023/12/29 07:17:36;;;;;;;16.30;7.40;;;;;;;6.25;78.62;99475.88;104706;1253;138176;-71
2023/12/29 07:20:03;;;;;;;11.80;7.00;;;;;;;6.27;78.70;99467.01;104757;1252;107347;-72
2023/12/29 07:22:30;;;;;;;11.00;6.90;;;;;;;6.32;78.70;99468.45;104678;1253;138073;-70
2023/12/29 07:24:57;;;;;;;9.80;6.90;;;;;;;6.35;78.74;99466.79;104315;1255;109721;-72
2023/12/29 07:27:24;;;;;;;10.90;7.00;;;;;;;6.40;78.84;99462.52;103411;1255;108306;-71
2023/12/29 07:29:51;;;;;;;12.40;7.10;;;;;;;6.41;78.67;99459.20;103293;1255;137693;-71
2023/12/29 07:32:18;;;;;;;12.70;7.10;;;;;;;6.43;78.58;99468.29;103412;1251;109135;-70
2023/12/29 07:34:45;;;;;;;13.30;7.40;;;;;;;6.47;78.71;99459.23;103391;1251;138112;-70
2023/12/29 07:37:12;;;;;;;10.80;6.20;;;;;;;6.47;78.88;99453.53;103502;1251;109489;-71
2023/12/29 07:39:39;;;;;;;10.70;7.10;;;;;;;6.49;78.62;99455.39;103447;1256;107254;-71
2023/12/29 07:42:07;;;;;;;9.00;6.00;;;;;;;6.50;78.57;99458.96;104682;1255;138098;-71
2023/12/29 07:44:34;;;;;;;7.70;5.90;;;;;;;6.53;78.51;99454.90;103527;1252;106836;-72
2023/12/29 07:47:01;;;;;;;9.00;6.30;;;;;;;6.59;78.69;99453.50;103333;1256;139894;-71
2023/12/29 07:49:28;;;;;;;10.60;6.40;;;;;;;6.64;78.54;99452.69;103400;1253;110024;-71
2023/12/29 07:51:55;;;;;;;11.90;6.70;;;;;;;6.66;78.40;99449.19;103409;1253;107771;-71
2023/12/29 07:54:22;;;;;;;11.10;6.70;;;;;;;6.71;78.33;99449.90;103333;1253;137459;-71
2023/12/29 07:56:50;;;;;;;12.80;6.60;;;;;;;6.75;78.35;99457.71;103343;1253;107466;-71
2023/12/29 07:59:17;;;;;;;10.00;6.40;;;;;;;6.77;78.22;99457.15;104654;1256;137549;-72
2023/12/29 08:01:44;;;;;;;9.10;5.80;;;;;;;6.78;78.26;99453.98;104778;1253;109345;-72
2023/12/29 08:04:11;;;;;;;8.80;5.10;;;;;;;6.83;78.07;99451.28;104750;1253;106592;-73
2023/12/29 08:06:41;;;;;;;7.30;5.30;;;;;;;6.86;77.96;99444.27;104665;1251;137933;-72
2023/12/29 08:09:08;;;;;;;7.40;5.00;;;;;;;6.93;77.87;99443.88;104473;1255;107854;-72
2023/12/29 08:11:34;;;;;;;8.60;4.80;;;;;;;7.01;77.78;99445.39;103291;1256;138838;-72
2023/12/29 08:14:02;;;;;;;8.00;5.30;;;;;;;7.07;77.69;99433.45;103497;1255;109381;-71
2023/12/29 08:16:29;;;;;;;8.00;5.20;;;;;;;7.15;77.67;99440.79;103350;1256;137996;-71
2023/12/29 08:18:56;;;;;;;6.80;4.50;;;;;;;7.20;77.20;99435.10;103483;1253;96435;-71
2023/12/29 08:21:23;;;;;;;6.00;4.30;;;;;;;7.25;77.06;99434.60;103410;1253;108178;-69
2023/12/29 08:23:50;;;;;;;10.70;4.40;;;;;;;7.27;76.93;99442.30;103346;1256;137242;-71
2023/12/29 08:26:17;;;;;;;7.80;4.80;;;;;;;7.33;76.73;99441.95;103489;1256;109625;-72
2023/12/29 08:28:45;;;;;;;7.70;4.80;;;;;;;7.37;76.56;99437.51;103304;1254;138695;-71
2023/12/29 08:31:12;;;;;;;6.10;4.20;;;;;;;7.41;76.46;99428.56;103434;1253;96458;-73
2023/12/29 08:33:39;;;;;;;7.00;4.20;;;;;;;7.46;76.04;99431.16;103453;1256;107403;-72
2023/12/29 08:36:07;;;;;;;7.40;4.30;;;;;;;7.52;75.66;99430.95;103201;1254;137730;-71
2023/12/29 08:38:34;;;;;;;7.40;4.00;;;;;;;7.63;75.67;99436.98;103390;1253;108935;-72
2023/12/29 08:41:02;;;;;;;9.30;4.40;;;;;;;7.85;75.52;99430.87;103256;1258;138054;-72
2023/12/29 08:43:29;;;;;;;7.20;4.60;;;;;;;8.04;75.07;99440.44;102572;1256;1003095;-71
2023/12/29 08:45:56;;;;;;;8.20;4.70;;;;;;;8.23;74.38;99455.04;103340;1254;107354;-72
2023/12/29 08:48:23;;;;;;;6.50;4.70;;;;;;;8.38;73.54;99443.57;103308;1253;137337;-71
2023/12/29 08:50:51;;;;;;;6.80;5.10;;;;;;;8.58;73.53;99445.50;104804;1253;109872;-72
2023/12/29 08:53:21;;;;;;;8.70;5.30;;;;;;;8.79;73.19;99448.34;104089;1256;137610;-70
2023/12/29 08:55:48;;;;;;;7.60;5.60;;;;;;;8.95;71.85;99431.41;103430;1259;96430;-72
2023/12/29 08:58:14;;;;;;;7.40;5.20;;;;;;;8.96;71.15;99432.45;103308;1255;107222;-71
2023/12/29 09:00:41;;;;;;;9.60;5.80;;;;;;;8.99;71.01;99433.55;103245;1254;138575;-71
2023/12/29 09:03:08;;;;;;;9.90;6.00;;;;;;;9.09;70.99;99436.62;103800;1256;109314;-72
2023/12/29 09:05:35;;;;;;;11.00;6.50;;;;;;;9.19;70.99;99424.09;103186;1259;137517;-71
2023/12/29 09:08:02;;;;;;;9.60;6.40;;;;;;;9.34;71.29;99425.38;103331;1253;96454;-72
2023/12/29 09:10:29;;;;;;;9.00;6.40;;;;;;;9.49;69.87;99426.84;103301;1256;137316;-70
2023/12/29 09:12:56;;;;;;;10.90;6.50;;;;;;;9.52;69.81;99427.07;103359;1257;96335;-70
2023/12/29 09:15:23;;;;;;;10.60;6.60;;;;;;;9.62;69.96;99423.34;103440;1253;109998;-70
2023/12/29 09:17:50;;;;;;;9.30;6.40;;;;;;;9.79;70.11;99420.77;103289;1257;138048;-71
2023/12/29 09:20:17;;;;;;;10.80;6.40;;;;;;;9.95;69.52;99417.13;103375;1253;95638;-71
2023/12/29 09:22:44;;;;;;;9.60;6.50;;;;;;;9.99;68.70;99414.14;103228;1257;138028;-71
2023/12/29 09:25:11;;;;;;;7.30;6.10;;;;;;;10.01;67.95;99415.09;103439;1256;96392;-71
2023/12/29 09:27:38;;;;;;;7.90;5.80;;;;;;;10.12;68.17;99407.00;103379;1256;111103;-71
2023/12/29 09:30:08;;;;;;;12.40;6.90;;;;;;;10.17;67.85;99405.04;103344;1255;138013;-70
2023/12/29 09:32:35;;;;;;;8.70;6.30;;;;;;;10.26;67.33;99401.02;103845;1253;96528;-71
2023/12/29 09:35:03;;;;;;;10.50;5.80;;;;;;;10.26;66.97;99412.83;103381;1255;137848;-70
2023/12/29 09:37:30;;;;;;;8.30;5.50;;;;;;;10.31;66.33;99407.43;103459;1256;96348;-71
2023/12/29 09:39:56;;;;;;;7.80;5.50;;;;;;;10.38;66.85;99411.97;103570;1253;109766;-70
2023/12/29 09:42:25;;;;;;;7.40;5.30;;;;;;;10.51;66.55;99407.90;103333;1255;137585;-70
2023/12/29 09:44:53;;;;;;;7.20;5.20;;;;;;;10.56;66.01;99411.31;103499;1257;96449;-71
2023/12/29 09:47:24;;;;;;;9.60;5.90;;;;;;;10.48;66.06;99409.92;104655;1254;137938;-71
2023/12/29 09:49:52;;;;;;;6.40;5.10;;;;;;;10.35;65.90;99395.77;104790;1253;94533;-71
2023/12/29 09:52:20;;;;;;;7.40;5.50;;;;;;;10.19;65.68;99399.08;104819;1253;109400;-71
2023/12/29 09:54:48;;;;;;;7.20;5.70;;;;;;;10.05;66.29;99399.67;103886;1254;138291;-71
2023/12/29 09:57:15;;;;;;;8.90;5.80;;;;;;;10.04;66.78;99396.75;103446;1255;96438;-71
2023/12/29 09:59:43;;;;;;;7.90;5.70;;;;;;;10.02;66.84;99395.95;104678;1254;138697;-72
2023/12/29 10:02:16;;;;;;;9.20;6.20;;;;;;;10.12;66.74;99410.14;104786;1257;95203;-71
2023/12/29 10:04:43;;;;;;;8.40;6.20;;;;;;;10.13;66.66;99407.65;103954;1254;137526;-71
2023/12/29 10:07:14;;;;;;;8.60;5.70;;;;;;;10.03;66.52;99405.31;103436;1256;108025;-70
2023/12/29 10:09:43;;;;;;;9.10;5.40;;;;;;;9.92;66.68;99399.54;103968;1252;95839;-69
2023/12/29 10:12:12;;;;;;;8.50;5.30;;;;;;;9.79;66.70;99403.05;104419;1256;138681;-72
2023/12/29 10:14:47;;;;;;;9.50;6.70;;;;;;;9.67;66.81;99408.90;103533;1255;96996;-71
2023/12/29 10:17:29;;;;;;;9.30;5.60;;;;;;;9.64;67.37;99404.54;103275;1256;138441;-71
2023/12/29 10:20:04;;;;;;;8.00;5.30;;;;;;;9.67;67.47;99401.64;103468;1257;107509;-70
2023/12/29 10:22:48;;;;;;;11.00;5.70;;;;;;;9.71;67.74;99396.47;104271;1256;137838;-71
2023/12/29 10:25:15;;;;;;;9.20;5.90;;;;;;;9.79;67.76;99401.85;104531;1257;107671;-71
2023/12/29 10:27:43;;;;;;;6.40;5.00;;;;;;;9.82;67.62;99390.93;103338;1257;96966;-71
2023/12/29 10:30:13;;;;;;;7.60;5.20;;;;;;;9.81;67.44;99387.34;103192;1254;137213;-72
2023/12/29 10:32:54;;;;;;;9.10;5.30;;;;;;;9.82;67.70;99389.88;104467;1255;108533;-69
2023/12/29 10:35:22;;;;;;;7.40;5.10;;;;;;;9.86;67.66;99382.42;103295;1255;137419;-70
2023/12/29 10:37:51;;;;;;;7.30;5.70;;;;;;;9.82;67.30;99380.14;104742;1254;106190;-72
2023/12/29 10:40:21;;;;;;;9.40;6.00;;;;;;;9.78;67.55;99384.34;104776;1254;94307;-71
2023/12/29 10:43:00;;;;;;;8.30;6.00;;;;;;;9.70;67.61;99379.13;103645;1254;111159;-72
2023/12/29 10:45:28;;;;;;;10.30;6.40;;;;;;;9.69;67.78;99387.84;103371;1254;1002822;-72
2023/12/29 10:47:55;;;;;;;7.30;5.40;;;;;;;9.71;68.01;99390.70;104134;1254;139164;-71
2023/12/29 10:50:22;;;;;;;8.10;5.60;;;;;;;9.79;67.85;99397.30;103080;1254;1003088;-71
2023/12/29 10:52:49;;;;;;;8.80;5.30;;;;;;;9.77;67.73;99394.61;103102;1254;138411;-71
2023/12/29 10:55:16;;;;;;;7.60;5.80;;;;;;;9.77;67.92;99392.02;103200;1253;111127;-72
2023/12/29 10:57:43;;;;;;;8.70;5.90;;;;;;;9.80;67.94;99395.02;103230;1257;107632;-72
2023/12/29 11:00:13;;;;;;;8.10;5.70;;;;;;;9.81;67.95;99390.45;103091;1257;138437;-72
2023/12/29 11:02:41;;;;;;;7.90;5.80;;;;;;;9.77;68.20;99382.33;103316;1255;107626;-70
2023/12/29 11:05:10;;;;;;;7.80;5.70;;;;;;;9.72;68.16;99381.14;103306;1257;137542;-71
2023/12/29 11:07:42;;;;;;;8.50;5.30;;;;;;;9.64;68.03;99388.23;104757;1254;109874;-71
2023/12/29 11:10:10;;;;;;;7.10;5.40;;;;;;;9.52;68.09;99383.19;104700;1257;107206;-73
2023/12/29 11:12:39;;;;;;;7.70;5.50;;;;;;;9.41;68.43;99386.59;104742;1254;138067;-72
2023/12/29 11:15:08;;;;;;;9.40;5.10;;;;;;;9.34;68.69;99379.42;103827;1254;108041;-72
2023/12/29 11:17:37;;;;;;;11.80;5.30;;;;;;;9.27;68.94;99368.27;104182;1253;138145;-71
2023/12/29 11:20:05;;;;;;;6.60;4.70;;;;;;;9.24;69.03;99376.70;103616;1254;109958;-71
2023/12/29 11:22:33;;;;;;;8.40;5.50;;;;;;;9.21;69.17;99370.56;104572;1253;138320;-72